Home > Products > Valid Products > TAF

000
FTUS42 TJSJ 271800 AAA
TAFJSJ
TAF AMD
TJSJ 271818Z 2718/2818 08014KT P6SM VCSH SCT025 SCT045 BKN070
     FM272330 00000KT P6SM SCT025
     FM281300 08012KT P6SM SCT025=



000
FTUS42 TJSJ 271700
TAFISX
TAF
TISX 271720Z 2718/2818 12015KT P6SM SCT025
     FM272300 07008KT P6SM FEW025
     FM281300 11013KT P6SM SCT025
      AMD NOT SKED=



000
FTUS42 TJSJ 271700
TAFKPK
TAF
TKPK 271720Z 2718/2818 10013KT P6SM SCT022
     FM272300 08009KT P6SM FEW020
      AMD NOT SKED 2802/2811=



000
FTUS42 TJSJ 271700
TAFIST
TAF
TIST 271720Z 2718/2818 13015KT P6SM SCT025
     FM272300 11008KT P6SM FEW025
     FM281300 13012KT P6SM SCT025
      AMD NOT SKED=



000
FTUS42 TJSJ 271700
TAFNCM
TAF
TNCM 271720Z 2718/2818 13012KT P6SM VCSH SCT020
     FM272300 12009KT P6SM FEW020=



000
FTUS42 TJSJ 271700
TAFJBQ
TAF
TJBQ 271720Z 2718/2818 VRB06KT P6SM VCSH SCT025 BKN070 OVC120
      TEMPO 2718/2721 5SM -SHRA BKN025
     FM272330 15005KT P6SM FEW050
     FM281400 08013KT P6SM SCT025
      AMD NOT SKED 2802/2811=



000
FTUS42 TJSJ 271700
TAFJMZ
TAF
TJMZ 271720Z 2718/2818 27010KT P6SM VCSH SCT025 BKN040
      TEMPO 2718/2721 5SM -SHRA BKN025
     FM272330 04004KT P6SM SCT025
     FM281530 27010KT P6SM SCT025 BKN040
      AMD NOT SKED=



000
FTUS42 TJSJ 271700
TAFJPS
TAF
TJPS 271720Z 2718/2818 14012KT P6SM VCSH FEW025 SCT050
      TEMPO 2718/2721 5SM -SHRA BKN025
     FM272330 05005KT P6SM VCSH SCT025 SCT060
     FM281500 13012KT P6SM FEW030 SCT060
      AMD NOT SKED TIL 280300=



000
FTUS42 TJSJ 271700
TAFJSJ
TAF
TJSJ 271720Z 2718/2818 15012KT P6SM VCSH SCT025 SCT050
     FM272330 00000KT P6SM SCT025
     FM281300 08012KT P6SM SCT025=



000
FTUS42 TJSJ 271500 AAA
TAFJBQ
TAF AMD
TJBQ 271552Z 2716/2812 VRB06KT P6SM VCSH SCT025 SCT040
     FM272330 15005KT P6SM FEW050=



000
FTUS42 TJSJ 271500 AAA
TAFJBQ
TAF AMD
TJBQ 271552Z 2716/2812 VRB06KT P6SM VCSH SCT025 SCT040
     FM272330 15005KT P6SM FEW050=



000
FTUS42 TJSJ 271100
TAFJSJ
TAF
TJSJ 271122Z 2712/2812 14003KT P6SM FEW025
     FM271300 11013KT P6SM SCT025
     FM272330 00000KT P6SM SCT025=



000
FTUS42 TJSJ 271100
TAFKPK
TAF
TKPK 271122Z 2712/2812 08007KT P6SM FEW021
     FM271300 11013KT P6SM SCT022
     FM272300 10009KT P6SM FEW020=



000
FTUS42 TJSJ 271100
TAFJMZ
TAF
TJMZ 271122Z 2712/2812 VRB04KT P6SM FEW030
     FM271530 27010KT P6SM VCSH SCT025 BKN040
     FM272330 04004KT P6SM SCT025
      AMD NOT SKED=



000
FTUS42 TJSJ 271100
TAFNCM
TAF
TNCM 271122Z 2712/2812 12009KT P6SM FEW019
     FM271300 14012KT P6SM SCT020
     FM272300 12009KT P6SM FEW020=



000
FTUS42 TJSJ 271100
TAFJPS
TAF
TJPS 271122Z 2712/2812 00000KT P6SM FEW020
     FM271500 14012KT P6SM VCSH FEW025 SCT050
     FM272330 05005KT P6SM VCSH SCT025 SCT060=



000
FTUS42 TJSJ 271100
TAFIST
TAF
TIST 271122Z 2712/2812 12008KT P6SM SCT025
     FM271300 13014KT P6SM SCT025
     FM272300 11008KT P6SM FEW025
      AMD NOT SKED=



000
FTUS42 TJSJ 271100
TAFJBQ
TAF
TJBQ 271122Z 2712/2812 VRB03KT P6SM FEW090
     FM271400 04008KT P6SM SCT025
     FM272330 15005KT P6SM FEW050=



000
FTUS42 TJSJ 271100
TAFISX
TAF
TISX 271122Z 2712/2812 10010KT P6SM FEW022 SCT035
     FM271300 12015KT P6SM SCT025
     FM272300 07008KT P6SM FEW025
      AMD NOT SKED=



000
FTUS42 TJSJ 270500
TAFISX
TAF
TISX 270526Z 2706/2806 10010KT P6SM BKN110
     FM271300 11013KT P6SM SCT025
     FM272300 06008KT P6SM FEW025
      AMD NOT SKED=



000
FTUS42 TJSJ 270500
TAFKPK
TAF
TKPK 270526Z 2706/2806 08007KT P6SM FEW021
     FM271300 11013KT P6SM SCT022
     FM272300 10009KT P6SM FEW020
      AMD NOT SKED TIL 271100=



000
FTUS42 TJSJ 270500
TAFJPS
TAF
TJPS 270526Z 2706/2806 00000KT P6SM FEW020
     FM271500 14012KT P6SM FEW025 SCT050
     FM272330 05005KT P6SM VCSH SCT025 SCT060=



000
FTUS42 TJSJ 270500
TAFIST
TAF
TIST 270526Z 2706/2806 12005KT P6SM FEW025
     FM271300 13012KT P6SM SCT025
     FM272300 09008KT P6SM FEW025
      AMD NOT SKED=



000
FTUS42 TJSJ 270500
TAFJMZ
TAF
TJMZ 270526Z 2706/2806 VRB04KT P6SM FEW030
     FM271530 27010KT P6SM SCT025 BKN040
     FM272330 04004KT P6SM SCT025
      AMD NOT SKED=



000
FTUS42 TJSJ 270500
TAFJBQ
TAF
TJBQ 270526Z 2706/2806 VRB03KT P6SM FEW030
     FM271400 VRB03KT P6SM SCT025
     FM272330 15005KT P6SM FEW050
      AMD NOT SKED TIL 271100=



000
FTUS42 TJSJ 270500
TAFNCM
TAF
TNCM 270526Z 2706/2806 12009KT P6SM FEW019
     FM271300 14012KT P6SM SCT020
     FM272300 12009KT P6SM FEW020=



000
FTUS42 TJSJ 270500
TAFJSJ
TAF
TJSJ 270526Z 2706/2806 00000KT P6SM FEW060
     FM271300 11010KT P6SM SCT025
     FM272330 00000KT P6SM SCT025=



000
FTUS42 TJSJ 262300
TAFJSJ
TAF
TJSJ 262340Z 2700/2724 09008KT P6SM FEW030 SCT070
     FM271300 11010KT P6SM SCT025
     FM272330 00000KT P6SM SCT025=



000
FTUS42 TJSJ 262300
TAFJPS
TAF
TJPS 262340Z 2700/2724 14005KT P6SM FEW030
     FM271500 14012KT P6SM FEW025 SCT050
     FM272330 05005KT P6SM VCSH SCT025 SCT060
      AMD NOT SKED TIL 270300=



000
FTUS42 TJSJ 262300
TAFNCM
TAF
TNCM 262340Z 2700/2724 11005KT P6SM SCT020
     FM271300 14012KT P6SM SCT020
     FM272300 12009KT P6SM FEW020=



000
FTUS42 TJSJ 262300
TAFJMZ
TAF
TJMZ 262340Z 2700/2724 VRB04KT P6SM FEW030
     FM271530 27010KT P6SM SCT025 BKN040
     FM272330 04004KT P6SM SCT025
      AMD NOT SKED=



000
FTUS42 TJSJ 262300
TAFJBQ
TAF
TJBQ 262340Z 2700/2724 VRB03KT P6SM FEW030
     FM271400 VRB03KT P6SM SCT025
     FM272330 15005KT P6SM FEW050
      AMD NOT SKED 2702/2711=



000
FTUS42 TJSJ 262300
TAFIST
TAF
TIST 262340Z 2700/2724 12005KT P6SM FEW025
     FM271300 13012KT P6SM SCT025
     FM272300 09008KT P6SM FEW025
      AMD NOT SKED=



000
FTUS42 TJSJ 262300
TAFKPK
TAF
TKPK 262340Z 2700/2724 08007KT P6SM FEW021
     FM271300 11013KT P6SM SCT022
     FM272300 10009KT P6SM FEW020
      AMD NOT SKED 2702/2711=



000
FTUS42 TJSJ 262300
TAFISX
TAF
TISX 262340Z 2700/2724 11006KT P6SM FEW025
     FM271300 11013KT P6SM SCT025
     FM272300 06008KT P6SM FEW025
      AMD NOT SKED=



000
FTUS42 TJSJ 261700 CCA
TAFJPS
TAF COR
TJPS 261729Z 2618/2718 14012KT P6SM FEW030
     FM262330 05005KT P6SM VCSH SCT025 SCT060
     FM271500 14012KT P6SM FEW025 SCT050
      AMD NOT SKED TIL 270300=



000
FTUS42 TJSJ 261700
TAFJBQ
TAF
TJBQ 261727Z 2618/2718 08012KT P6SM VCSH SCT020 SCT045
     FM262330 15005KT P6SM FEW050
     FM271400 VRB03KT P6SM SCT025
      AMD NOT SKED 2702/2711=



000
FTUS42 TJSJ 261700
TAFJMZ
TAF
TJMZ 261727Z 2618/2718 27010KT P6SM SCT030
     FM262330 04004KT P6SM SCT025
     FM271530 27010KT P6SM SCT025 BKN040
      AMD NOT SKED=



000
FTUS42 TJSJ 261700
TAFKPK
TAF
TKPK 261727Z 2618/2718 08012KT P6SM FEW022
     FM262300 10009KT P6SM FEW020
     FM271300 11013KT P6SM SCT022
      AMD NOT SKED 2702/2711=



000
FTUS42 TJSJ 261700
TAFJSJ
TAF
TJSJ 261727Z 2618/2718 08015KT P6SM FEW030 SCT050
     FM262330 00000KT P6SM SCT025
     FM271300 11010KT P6SM SCT025=



000
FTUS42 TJSJ 261700
TAFISX
TAF
TISX 261727Z 2618/2718 11014G22KT P6SM SCT025
     FM262300 06008KT P6SM FEW025
     FM271300 11013KT P6SM SCT025=



000
FTUS42 TJSJ 261700
TAFNCM
TAF
TNCM 261727Z 2618/2718 11013KT P6SM FEW020
     FM262300 12009KT P6SM FEW020
     FM271300 14012KT P6SM SCT020=



000
FTUS42 TJSJ 261700
TAFIST
TAF
TIST 261727Z 2618/2718 13015G20KT P6SM SCT025
     FM262300 09008KT P6SM FEW025
     FM271300 13012KT P6SM SCT025=



000
FTUS42 TJSJ 261700
TAFJPS
TAF
TJPS 261727Z 2618/2718 14012KT P6SM FEW030
     FM262330 05005KT P6SM SCT025 SCT060
     FM271500 14012KT P6SM FEW025 SCT050
      AMD NOT SKED TIL 270300=



000
FTUS42 TJSJ 261100
TAFNCM
TAF
TNCM 261139Z 2612/2712 10010KT P6SM FEW015
     FM261300 11012KT P6SM SCT020
     FM262300 07008KT P6SM FEW020=



000
FTUS42 TJSJ 261100
TAFJPS
TAF
TJPS 261139Z 2612/2712 05005KT P6SM FEW025
     FM261430 14012KT P6SM FEW030 SCT060
     FM262330 05005KT P6SM FEW025=



000
FTUS42 TJSJ 261100
TAFKPK
TAF
TKPK 261139Z 2612/2712 07010KT P6SM FEW015
     FM261300 08012KT P6SM SCT020
     FM262300 07008KT P6SM FEW020=



000
FTUS42 TJSJ 261100
TAFISX
TAF
TISX 261139Z 2612/2712 09012KT P6SM FEW023
     FM261300 11012KT P6SM SCT025
     FM262300 06008KT P6SM FEW025=



000
FTUS42 TJSJ 261100
TAFIST
TAF
TIST 261139Z 2612/2712 09008KT P6SM FEW025
     FM261300 13012KT P6SM SCT025
     FM262300 09008KT P6SM FEW025=



000
FTUS42 TJSJ 261100
TAFJSJ
TAF
TJSJ 261139Z 2612/2712 00000KT P6SM FEW025
     FM261430 07012KT P6SM FEW030 SCT050
     FM262330 10005KT P6SM SCT025=



000
FTUS42 TJSJ 261100
TAFJBQ
TAF
TJBQ 261139Z 2612/2712 11005KT P6SM SCT025 SCT040
     FM261430 07012KT P6SM FEW025 SCT050
     FM261730 07012KT P6SM VCSH SCT025 BKN050
     FM262330 11005KT P6SM SCT025=



000
FTUS42 TJSJ 261100
TAFJMZ
TAF
TJMZ 261139Z 2612/2712 VRB04KT P6SM FEW025
     FM261430 29010KT P6SM SCT025 SCT050
     FM261730 29010KT P6SM VCSH BKN030
     FM262330 VRB04KT P6SM SCT025
      AMD NOT SKED=



000
FTUS42 TJSJ 260500
TAFKPK
TAF
TKPK 260526Z 2606/2706 07010KT P6SM FEW015
     FM261300 08012KT P6SM SCT020
      AMD NOT SKED TIL 261100=



000
FTUS42 TJSJ 260500
TAFISX
TAF
TISX 260526Z 2606/2706 09009KT P6SM FEW023
     FM261300 11012KT P6SM SCT025
     FM262300 06008KT P6SM FEW025=



000
FTUS42 TJSJ 260500
TAFIST
TAF
TIST 260526Z 2606/2706 09008KT P6SM FEW025
     FM261300 13012KT P6SM SCT025
     FM262300 09008KT P6SM FEW025=



000
FTUS42 TJSJ 260500
TAFJMZ
TAF
TJMZ 260526Z 2606/2706 VRB04KT P6SM FEW025
     FM261430 29010KT P6SM SCT025 SCT050
     FM261730 29010KT P6SM VCSH BKN030
     FM262330 VRB04KT P6SM SCT025
      AMD NOT SKED=



000
FTUS42 TJSJ 260500
TAFJPS
TAF
TJPS 260526Z 2606/2706 05005KT P6SM FEW025
     FM261430 14012KT P6SM FEW030 SCT060
     FM262330 05005KT P6SM FEW025=



000
FTUS42 TJSJ 260500
TAFJBQ
TAF
TJBQ 260526Z 2606/2706 11005KT P6SM SCT025 SCT040
     FM261430 07012KT P6SM FEW025 SCT050
     FM261730 07012KT P6SM VCSH SCT025 BKN050
     FM262330 11005KT P6SM SCT025
      AMD NOT SKED TIL 261100=



000
FTUS42 TJSJ 260500
TAFJSJ
TAF
TJSJ 260526Z 2606/2706 00000KT P6SM FEW020
     FM261430 07012KT P6SM FEW030 SCT050
     FM262330 10005KT P6SM SCT025=



000
FTUS42 TJSJ 260500
TAFNCM
TAF
TNCM 260526Z 2606/2706 10010KT P6SM FEW015
     FM261300 11012KT P6SM SCT020=



000
FTUS42 TJSJ 252300
TAFJBQ
TAF
TJBQ 252332Z 2600/2624 11005KT P6SM SCT025 SCT040
     FM261430 07012KT P6SM FEW025 SCT050
     FM261730 07012KT P6SM VCSH SCT025 BKN050
     FM262330 11005KT P6SM SCT025
      AMD NOT SKED 2602/2611=



000
FTUS42 TJSJ 252300
TAFISX
TAF
TISX 252332Z 2600/2624 06008KT P6SM FEW025
     FM261300 11012KT P6SM SCT025
     FM262300 06008KT P6SM FEW025=



000
FTUS42 TJSJ 252300
TAFKPK
TAF
TKPK 252332Z 2600/2624 07010KT P6SM FEW015
     FM261300 08012KT P6SM SCT020
      AMD NOT SKED 2602/2611=



000
FTUS42 TJSJ 252300
TAFJSJ
TAF
TJSJ 252332Z 2600/2624 10005KT P6SM SCT025 SCT040
     FM261430 07012KT P6SM FEW030 SCT050
     FM262330 10005KT P6SM SCT025=



000
FTUS42 TJSJ 252300
TAFIST
TAF
TIST 252332Z 2600/2624 09008KT P6SM FEW025
     FM261300 13012KT P6SM SCT025
     FM262300 09008KT P6SM FEW025=



000
FTUS42 TJSJ 252300
TAFJMZ
TAF
TJMZ 252332Z 2600/2624 VRB04KT P6SM FEW025
     FM261430 29010KT P6SM SCT025 SCT050
     FM261730 29010KT P6SM VCSH BKN030
     FM262330 VRB04KT P6SM SCT025
      AMD NOT SKED=



000
FTUS42 TJSJ 252300
TAFNCM
TAF
TNCM 252332Z 2600/2624 10010KT P6SM FEW015
     FM261300 11012KT P6SM SCT020=



000
FTUS42 TJSJ 252300
TAFJPS
TAF
TJPS 252332Z 2600/2624 05005KT P6SM FEW025
     FM261430 14012KT P6SM FEW030 SCT060
     FM262330 05005KT P6SM FEW025
      AMD NOT SKED TIL 260300=



000
FTUS42 TJSJ 251800 AAA
TAFJSJ
TAF AMD
TJSJ 251852Z 2519/2618 11012KT P6SM VCSH FEW030 SCT050
     FM252330 VRB04KT P6SM FEW025
     FM261400 08012KT P6SM FEW030 SCT050=



000
FTUS42 TJSJ 251700
TAFJPS
TAF
TJPS 251740Z 2518/2618 14010KT P6SM VCSH FEW030 SCT060
     FM252330 VRB04KT P6SM FEW030
     FM261400 14012KT P6SM FEW030 SCT050
      AMD NOT SKED TIL 260300=



000
FTUS42 TJSJ 251700
TAFJBQ
TAF
TJBQ 251740Z 2518/2618 06012KT P6SM FEW030
     FM252330 VRB05KT P6SM FEW025
     FM261500 06012KT P6SM FEW030 SCT050
      AMD NOT SKED 2602/2611=



000
FTUS42 TJSJ 251700
TAFJSJ
TAF
TJSJ 251740Z 2518/2618 07012KT P6SM VCSH FEW030 SCT050
     FM252330 VRB04KT P6SM FEW025
     FM261400 08012KT P6SM FEW030 SCT050=



000
FTUS42 TJSJ 251700
TAFNCM
TAF
TNCM 251740Z 2518/2618 10010KT P6SM FEW020
     FM261700 12010KT P6SM FEW020=



000
FTUS42 TJSJ 251700
TAFKPK
TAF
TKPK 251740Z 2518/2618 08012KT P6SM FEW020
      AMD NOT SKED 2602/2611=



000
FTUS42 TJSJ 251700
TAFISX
TAF
TISX 251740Z 2518/2618 11012KT P6SM FEW030
     FM252300 07008KT P6SM FEW025
     FM261300 11012KT P6SM FEW030
      AMD NOT SKED=



000
FTUS42 TJSJ 251700
TAFJMZ
TAF
TJMZ 251740Z 2518/2618 27010KT P6SM VCSH SCT030 BKN050
     FM252330 VRB05KT P6SM FEW025
     FM261530 26012KT P6SM FEW030
      AMD NOT SKED=



000
FTUS42 TJSJ 251700
TAFIST
TAF
TIST 251740Z 2518/2618 13012KT P6SM FEW030
     FM252300 11008KT P6SM FEW025
     FM261300 14012KT P6SM FEW030
      AMD NOT SKED=



000
FTUS42 TJSJ 251100
TAFJPS
TAF
TJPS 251121Z 2512/2612 05005KT P6SM SKC
     FM251530 13010KT P6SM FEW030 FEW060
     FM252330 05005KT P6SM FEW025
      AMD NOT SKED TIL 260300=



000
FTUS42 TJSJ 251100
TAFIST
TAF
TIST 251121Z 2512/2612 07005KT P6SM SCT022 BKN040
      TEMPO 2512/2514 -SHRA BKN030
     FM251400 13012KT P6SM FEW030
     FM252300 11008KT P6SM FEW025=



000
FTUS42 TJSJ 251100
TAFJSJ
TAF
TJSJ 251121Z 2512/2612 00000KT P6SM FEW025
     FM251530 07012KT P6SM FEW030 FEW050
     FM252330 VRB04KT P6SM FEW025=



000
FTUS42 TJSJ 251100
TAFJMZ
TAF
TJMZ 251121Z 2512/2612 VRB05KT P6SM SKC
     FM251730 27010KT P6SM VCSH SCT030 BKN050
     FM252330 VRB05KT P6SM FEW025
      AMD NOT SKED=



000
FTUS42 TJSJ 251100
TAFNCM
TAF
TNCM 251121Z 2512/2612 10006KT P6SM FEW020 BKN070
     FM251300 12012KT P6SM FEW020
     FM252300 10008KT P6SM FEW020=



000
FTUS42 TJSJ 251100
TAFISX
TAF
TISX 251121Z 2512/2612 01004KT P6SM VCSH FEW024 BKN040
     FM251400 11012KT P6SM FEW030
     FM252300 05008KT P6SM FEW025=



000
FTUS42 TJSJ 251100
TAFKPK
TAF
TKPK 251121Z 2512/2612 07009KT P6SM FEW020
     FM251300 08012KT P6SM FEW020
     FM252300 07008KT P6SM FEW020
      AMD NOT SKED 2602/2611=



000
FTUS42 TJSJ 251100
TAFJBQ
TAF
TJBQ 251121Z 2512/2612 11005KT P6SM FEW025
     FM251530 VRB06KT P6SM FEW030 SCT050
     FM251730 06012KT P6SM VCSH SCT030 BKN050
     FM252330 11005KT P6SM SCT025
      AMD NOT SKED 2602/2611=



000
FTUS42 TJSJ 250500
TAFIST
TAF
TIST 250530Z 2506/2606 09008KT P6SM FEW025
     FM251300 13012KT P6SM FEW030
     FM252300 11008KT P6SM FEW025
      AMD NOT SKED=



000
FTUS42 TJSJ 250500
TAFJMZ
TAF
TJMZ 250530Z 2506/2606 VRB05KT P6SM SKC
     FM251730 27010KT P6SM VCSH SCT030 BKN050
     FM252330 VRB05KT P6SM FEW025
      AMD NOT SKED=



000
FTUS42 TJSJ 250500
TAFJPS
TAF
TJPS 250530Z 2506/2606 05005KT P6SM SKC
     FM251530 13010KT P6SM FEW030 FEW060
     FM252330 05005KT P6SM FEW025=



000
FTUS42 TJSJ 250500
TAFNCM
TAF
TNCM 250530Z 2506/2606 09010KT P6SM FEW020 BKN070
     FM251300 12012KT P6SM FEW020
     FM252300 10008KT P6SM FEW020=



000
FTUS42 TJSJ 250500
TAFJBQ
TAF
TJBQ 250530Z 2506/2606 11005KT P6SM FEW025
     FM251530 VRB06KT P6SM FEW030 SCT050
     FM251730 06012KT P6SM VCSH SCT030 BKN050
     FM252330 11005KT P6SM SCT025
      AMD NOT SKED TIL 251100=



000
FTUS42 TJSJ 250500
TAFJSJ
TAF
TJSJ 250530Z 2506/2606 11004KT P6SM SKC
     FM251530 07012KT P6SM FEW030 FEW050
     FM252330 VRB04KT P6SM FEW025=



000
FTUS42 TJSJ 250500
TAFISX
TAF
TISX 250530Z 2506/2606 03008KT P6SM FEW025
     FM251300 11012KT P6SM FEW030
     FM252300 05008KT P6SM FEW025
      AMD NOT SKED=



000
FTUS42 TJSJ 250500
TAFKPK
TAF
TKPK 250530Z 2506/2606 08010KT P6SM FEW020
     FM251300 08012KT P6SM FEW020
     FM252300 07008KT P6SM FEW020
      AMD NOT SKED TIL 251100=



000
FTUS42 TJSJ 242300 RRA
TAFJMZ
TAF
TJMZ 242341Z 2500/2524 VRB05KT P6SM SKC
     FM251730 27010KT P6SM VCSH SCT030 BKN050
     FM252330 VRB05KT P6SM FEW025
      AMD NOT SKED=



000
FTUS42 TJSJ 242300 RRA
TAFKPK
TAF
TKPK 242341Z 2500/2524 08010KT P6SM FEW020
     FM251300 08012KT P6SM SCT020
      AMD NOT SKED 2502/2511=



000
FTUS42 TJSJ 242300 RRA
TAFJSJ
TAF
TJSJ 242341Z 2500/2524 11004KT P6SM FEW025
     FM251530 09012KT P6SM FEW030 FEW050
     FM252330 11004KT P6SM FEW025=



000
FTUS42 TJSJ 242300 RRA
TAFNCM
TAF
TNCM 242341Z 2500/2524 09010KT P6SM FEW020
     FM251300 10012KT P6SM SCT020=



000
FTUS42 TJSJ 242300 RRA
TAFIST
TAF
TIST 242341Z 2500/2524 09008KT P6SM FEW025
     FM251300 13012KT P6SM SCT030
     FM252300 09008KT P6SM FEW025=



000
FTUS42 TJSJ 242300 RRA
TAFISX
TAF
TISX 242341Z 2500/2524 03008KT P6SM FEW025
     FM251300 11012KT P6SM SCT030
     FM252300 03008KT P6SM FEW025=



000
FTUS42 TJSJ 242300 RRA
TAFJPS
TAF
TJPS 242341Z 2500/2524 05005KT P6SM SKC
     FM251530 13010KT P6SM FEW030 FEW060
     FM252330 05005KT P6SM FEW025
      AMD NOT SKED TIL 250300=



000
FTUS42 TJSJ 242300 RRA
TAFJBQ
TAF
TJBQ 242341Z 2500/2524 11005KT P6SM FEW025
     FM251530 VRB06KT P6SM FEW030 SCT050
     FM251730 06012KT P6SM VCSH SCT030 BKN050
     FM252330 11005KT P6SM SCT025
      AMD NOT SKED 2502/2511=



    US Dept of Commerce
    National Oceanic and Atmospheric Administration
    National Weather Service
    1325 East West Highway
    Silver Spring, MD 20910
    Page Author: NWS Internet Services Team
Disclaimer
Information Quality
Credits
Glossary
Privacy Policy
Freedom of Information Act (FOIA)
About Us
Career Opportunities